sensor_id;sensor_type;location;lat;lon;timestamp;P1;durP1;ratioP1;P2;durP2;ratioP2
63621;SDS011;49770;47.544;19.074;2022-12-16T05:27:24;45.90;;;19.20;;
63621;SDS011;49770;47.544;19.074;2022-12-16T05:30:46;41.92;;;18.90;;
63621;SDS011;49770;47.544;19.074;2022-12-16T05:34:10;37.03;;;17.40;;
63621;SDS011;49770;47.544;19.074;2022-12-16T05:37:32;35.08;;;17.23;;
63621;SDS011;49770;47.544;19.074;2022-12-16T05:40:54;32.33;;;16.20;;
63621;SDS011;49770;47.544;19.074;2022-12-16T05:44:18;27.65;;;14.35;;
63621;SDS011;49770;47.544;19.074;2022-12-16T05:47:39;28.87;;;15.07;;
63621;SDS011;49770;47.544;19.074;2022-12-16T05:51:01;25.02;;;13.80;;
63621;SDS011;49770;47.544;19.074;2022-12-16T05:54:22;24.35;;;13.75;;
63621;SDS011;49770;47.544;19.074;2022-12-16T05:57:50;23.30;;;13.55;;
63621;SDS011;49770;47.544;19.074;2022-12-16T06:01:12;25.23;;;14.02;;
63621;SDS011;49770;47.544;19.074;2022-12-16T06:04:34;20.95;;;12.80;;
63621;SDS011;49770;47.544;19.074;2022-12-16T06:07:56;22.27;;;12.85;;
63621;SDS011;49770;47.544;19.074;2022-12-16T06:11:18;22.27;;;12.60;;
63621;SDS011;49770;47.544;19.074;2022-12-16T06:14:41;19.73;;;11.93;;
63621;SDS011;49770;47.544;19.074;2022-12-16T06:18:03;22.40;;;12.30;;
63621;SDS011;49770;47.544;19.074;2022-12-16T06:21:25;19.55;;;12.57;;
63621;SDS011;49770;47.544;19.074;2022-12-16T06:24:46;21.58;;;13.20;;
63621;SDS011;49770;47.544;19.074;2022-12-16T06:28:07;21.58;;;12.75;;
63621;SDS011;49770;47.544;19.074;2022-12-16T06:31:29;22.15;;;12.73;;
63621;SDS011;49770;47.544;19.074;2022-12-16T06:34:50;22.48;;;13.23;;
63621;SDS011;49770;47.544;19.074;2022-12-16T06:38:11;20.30;;;12.65;;
63621;SDS011;49770;47.544;19.074;2022-12-16T06:41:33;18.77;;;11.88;;
63621;SDS011;49770;47.544;19.074;2022-12-16T06:44:54;21.17;;;13.10;;
63621;SDS011;49770;47.544;19.074;2022-12-16T06:48:15;21.85;;;13.68;;
63621;SDS011;49770;47.544;19.074;2022-12-16T06:51:36;21.98;;;13.05;;
63621;SDS011;49770;47.544;19.074;2022-12-16T06:54:57;23.35;;;12.63;;
63621;SDS011;49770;47.544;19.074;2022-12-16T07:01:40;22.08;;;13.32;;
63621;SDS011;49770;47.544;19.074;2022-12-16T07:05:02;22.73;;;13.02;;
63621;SDS011;49770;47.544;19.074;2022-12-16T07:08:24;20.77;;;12.57;;
63621;SDS011;49770;47.544;19.074;2022-12-16T07:11:46;20.77;;;12.82;;
63621;SDS011;49770;47.544;19.074;2022-12-16T07:15:07;19.95;;;12.45;;
63621;SDS011;49770;47.544;19.074;2022-12-16T07:18:29;19.83;;;12.57;;
63621;SDS011;49770;47.544;19.074;2022-12-16T07:21:50;19.40;;;12.80;;
63621;SDS011;49770;47.544;19.074;2022-12-16T07:28:33;23.83;;;12.93;;
63621;SDS011;49770;47.544;19.074;2022-12-16T07:31:54;19.35;;;12.65;;
63621;SDS011;49770;47.544;19.074;2022-12-16T07:35:15;21.55;;;12.70;;
63621;SDS011;49770;47.544;19.074;2022-12-16T07:38:37;19.77;;;12.23;;
63621;SDS011;49770;47.544;19.074;2022-12-16T07:45:20;23.58;;;12.85;;
63621;SDS011;49770;47.544;19.074;2022-12-16T07:48:46;26.30;;;14.32;;
63621;SDS011;49770;47.544;19.074;2022-12-16T07:52:07;26.67;;;15.02;;
63621;SDS011;49770;47.544;19.074;2022-12-16T07:55:32;31.25;;;16.10;;
63621;SDS011;49770;47.544;19.074;2022-12-16T07:58:54;29.45;;;16.15;;
63621;SDS011;49770;47.544;19.074;2022-12-16T08:02:15;23.60;;;14.85;;
63621;SDS011;49770;47.544;19.074;2022-12-16T08:05:39;31.52;;;16.10;;
63621;SDS011;49770;47.544;19.074;2022-12-16T08:09:00;23.60;;;14.93;;
63621;SDS011;49770;47.544;19.074;2022-12-16T08:12:21;22.35;;;14.68;;
63621;SDS011;49770;47.544;19.074;2022-12-16T08:15:42;25.55;;;15.30;;
63621;SDS011;49770;47.544;19.074;2022-12-16T08:22:24;26.73;;;15.10;;
63621;SDS011;49770;47.544;19.074;2022-12-16T08:29:10;33.33;;;15.80;;
63621;SDS011;49770;47.544;19.074;2022-12-16T08:32:47;30.62;;;15.73;;
63621;SDS011;49770;47.544;19.074;2022-12-16T08:36:28;35.17;;;15.90;;
63621;SDS011;49770;47.544;19.074;2022-12-16T08:43:31;35.00;;;16.90;;
63621;SDS011;49770;47.544;19.074;2022-12-16T08:46:56;32.17;;;17.17;;
63621;SDS011;49770;47.544;19.074;2022-12-16T08:50:18;28.02;;;16.08;;
63621;SDS011;49770;47.544;19.074;2022-12-16T08:53:39;29.95;;;15.75;;
63621;SDS011;49770;47.544;19.074;2022-12-16T09:00:22;30.92;;;17.33;;
63621;SDS011;49770;47.544;19.074;2022-12-16T09:03:43;36.38;;;18.58;;
63621;SDS011;49770;47.544;19.074;2022-12-16T09:10:26;33.88;;;18.12;;
63621;SDS011;49770;47.544;19.074;2022-12-16T09:13:49;43.55;;;18.77;;
63621;SDS011;49770;47.544;19.074;2022-12-16T09:17:24;35.72;;;19.10;;
63621;SDS011;49770;47.544;19.074;2022-12-16T09:24:07;39.45;;;18.80;;
63621;SDS011;49770;47.544;19.074;2022-12-16T09:27:28;40.47;;;20.25;;
63621;SDS011;49770;47.544;19.074;2022-12-16T09:30:50;40.45;;;19.87;;
63621;SDS011;49770;47.544;19.074;2022-12-16T09:34:12;41.30;;;19.42;;
63621;SDS011;49770;47.544;19.074;2022-12-16T09:37:32;39.97;;;18.52;;
63621;SDS011;49770;47.544;19.074;2022-12-16T09:41:17;40.12;;;18.65;;
63621;SDS011;49770;47.544;19.074;2022-12-16T09:45:32;36.38;;;18.92;;
63621;SDS011;49770;47.544;19.074;2022-12-16T09:48:54;38.30;;;19.25;;
63621;SDS011;49770;47.544;19.074;2022-12-16T09:52:19;36.25;;;18.62;;
63621;SDS011;49770;47.544;19.074;2022-12-16T09:55:42;36.20;;;18.60;;
63621;SDS011;49770;47.544;19.074;2022-12-16T09:59:12;41.13;;;19.35;;
63621;SDS011;49770;47.544;19.074;2022-12-16T10:02:35;37.67;;;18.27;;
63621;SDS011;49770;47.544;19.074;2022-12-16T10:06:08;36.00;;;16.83;;
63621;SDS011;49770;47.544;19.074;2022-12-16T10:13:46;30.73;;;16.27;;
63621;SDS011;49770;47.544;19.074;2022-12-16T10:17:21;36.20;;;18.05;;
63621;SDS011;49770;47.544;19.074;2022-12-16T10:20:48;36.42;;;17.42;;
63621;SDS011;49770;47.544;19.074;2022-12-16T10:24:28;32.28;;;15.73;;
63621;SDS011;49770;47.544;19.074;2022-12-16T10:28:17;29.40;;;15.30;;
63621;SDS011;49770;47.544;19.074;2022-12-16T10:31:41;32.28;;;15.32;;
63621;SDS011;49770;47.544;19.074;2022-12-16T10:35:14;30.48;;;16.52;;
63621;SDS011;49770;47.544;19.074;2022-12-16T10:38:49;32.95;;;16.48;;
63621;SDS011;49770;47.544;19.074;2022-12-16T10:42:17;30.50;;;15.73;;
63621;SDS011;49770;47.544;19.074;2022-12-16T10:45:43;33.65;;;17.10;;
63621;SDS011;49770;47.544;19.074;2022-12-16T10:49:11;32.30;;;17.23;;
63621;SDS011;49770;47.544;19.074;2022-12-16T10:52:36;33.03;;;16.90;;
63621;SDS011;49770;47.544;19.074;2022-12-16T11:00:10;35.95;;;16.70;;
63621;SDS011;49770;47.544;19.074;2022-12-16T11:03:38;33.63;;;17.00;;
63621;SDS011;49770;47.544;19.074;2022-12-16T11:07:00;35.78;;;18.25;;
63621;SDS011;49770;47.544;19.074;2022-12-16T11:13:56;35.15;;;17.35;;
63621;SDS011;49770;47.544;19.074;2022-12-16T11:17:34;36.07;;;18.17;;
63621;SDS011;49770;47.544;19.074;2022-12-16T11:21:15;36.22;;;17.23;;
63621;SDS011;49770;47.544;19.074;2022-12-16T11:24:39;32.42;;;16.08;;
63621;SDS011;49770;47.544;19.074;2022-12-16T11:28:01;32.58;;;15.90;;
63621;SDS011;49770;47.544;19.074;2022-12-16T11:31:49;33.88;;;16.62;;
63621;SDS011;49770;47.544;19.074;2022-12-16T11:35:16;32.95;;;16.73;;
63621;SDS011;49770;47.544;19.074;2022-12-16T11:38:47;34.90;;;17.33;;
63621;SDS011;49770;47.544;19.074;2022-12-16T11:42:20;30.30;;;14.85;;
63621;SDS011;49770;47.544;19.074;2022-12-16T11:45:44;29.42;;;16.12;;
63621;SDS011;49770;47.544;19.074;2022-12-16T11:49:16;30.75;;;16.35;;
63621;SDS011;49770;47.544;19.074;2022-12-16T11:52:45;35.38;;;17.27;;
63621;SDS011;49770;47.544;19.074;2022-12-16T11:56:15;33.35;;;16.62;;
63621;SDS011;49770;47.544;19.074;2022-12-16T12:03:38;36.58;;;17.58;;
63621;SDS011;49770;47.544;19.074;2022-12-16T12:07:20;37.47;;;17.90;;
63621;SDS011;49770;47.544;19.074;2022-12-16T12:11:01;38.75;;;18.73;;
63621;SDS011;49770;47.544;19.074;2022-12-16T12:14:38;47.42;;;20.00;;
63621;SDS011;49770;47.544;19.074;2022-12-16T12:18:28;46.97;;;20.17;;
63621;SDS011;49770;47.544;19.074;2022-12-16T12:22:08;44.15;;;19.60;;
63621;SDS011;49770;47.544;19.074;2022-12-16T12:25:42;42.13;;;18.80;;
63621;SDS011;49770;47.544;19.074;2022-12-16T12:29:22;40.65;;;19.25;;
63621;SDS011;49770;47.544;19.074;2022-12-16T12:32:51;47.38;;;20.80;;
63621;SDS011;49770;47.544;19.074;2022-12-16T12:36:38;47.05;;;21.10;;
63621;SDS011;49770;47.544;19.074;2022-12-16T12:40:18;47.22;;;21.55;;
63621;SDS011;49770;47.544;19.074;2022-12-16T12:47:16;42.97;;;21.20;;
63621;SDS011;49770;47.544;19.074;2022-12-16T12:50:42;39.20;;;19.75;;
63621;SDS011;49770;47.544;19.074;2022-12-16T12:54:20;39.00;;;19.00;;
63621;SDS011;49770;47.544;19.074;2022-12-16T12:57:49;39.58;;;18.50;;
63621;SDS011;49770;47.544;19.074;2022-12-16T13:01:13;34.25;;;18.00;;
63621;SDS011;49770;47.544;19.074;2022-12-16T13:04:36;27.80;;;15.00;;
63621;SDS011;49770;47.544;19.074;2022-12-16T13:15:37;22.60;;;12.68;;
63621;SDS011;49770;47.544;19.074;2022-12-16T13:22:49;19.27;;;10.85;;
63621;SDS011;49770;47.544;19.074;2022-12-16T13:26:10;18.60;;;10.23;;
63621;SDS011;49770;47.544;19.074;2022-12-16T13:29:35;18.35;;;10.50;;
63621;SDS011;49770;47.544;19.074;2022-12-16T13:37:22;16.52;;;9.93;;
63621;SDS011;49770;47.544;19.074;2022-12-16T13:48:03;17.90;;;9.82;;
63621;SDS011;49770;47.544;19.074;2022-12-16T13:58:58;18.35;;;10.30;;
63621;SDS011;49770;47.544;19.074;2022-12-16T14:02:36;16.37;;;10.15;;
63621;SDS011;49770;47.544;19.074;2022-12-16T14:06:00;15.85;;;9.80;;
63621;SDS011;49770;47.544;19.074;2022-12-16T14:09:37;16.77;;;10.30;;
63621;SDS011;49770;47.544;19.074;2022-12-16T14:13:06;17.00;;;10.63;;
63621;SDS011;49770;47.544;19.074;2022-12-16T14:20:20;15.20;;;10.30;;
63621;SDS011;49770;47.544;19.074;2022-12-16T14:23:53;16.05;;;9.95;;
63621;SDS011;49770;47.544;19.074;2022-12-16T14:27:22;18.83;;;10.85;;
63621;SDS011;49770;47.544;19.074;2022-12-16T14:30:44;17.17;;;11.25;;
63621;SDS011;49770;47.544;19.074;2022-12-16T14:41:09;15.38;;;10.40;;
63621;SDS011;49770;47.544;19.074;2022-12-16T14:44:51;15.95;;;10.20;;
63621;SDS011;49770;47.544;19.074;2022-12-16T14:48:14;14.10;;;9.90;;
63621;SDS011;49770;47.544;19.074;2022-12-16T14:51:48;16.17;;;10.23;;
63621;SDS011;49770;47.544;19.074;2022-12-16T14:58:36;15.50;;;10.50;;
63621;SDS011;49770;47.544;19.074;2022-12-16T15:02:30;18.52;;;10.68;;
63621;SDS011;49770;47.544;19.074;2022-12-16T15:06:10;17.67;;;11.27;;
63621;SDS011;49770;47.544;19.074;2022-12-16T15:43:39;24.45;;;14.45;;
63621;SDS011;49770;47.544;19.074;2022-12-16T16:05:52;30.67;;;16.45;;
63621;SDS011;49770;47.544;19.074;2022-12-16T16:09:14;29.52;;;16.20;;
63621;SDS011;49770;47.544;19.074;2022-12-16T16:12:35;29.63;;;16.42;;
63621;SDS011;49770;47.544;19.074;2022-12-16T16:19:24;27.77;;;14.98;;
63621;SDS011;49770;47.544;19.074;2022-12-16T16:22:46;22.10;;;12.63;;
63621;SDS011;49770;47.544;19.074;2022-12-16T16:26:09;19.05;;;11.02;;
63621;SDS011;49770;47.544;19.074;2022-12-16T16:29:34;19.55;;;11.45;;
63621;SDS011;49770;47.544;19.074;2022-12-16T16:32:55;20.37;;;10.93;;
63621;SDS011;49770;47.544;19.074;2022-12-16T16:36:16;21.73;;;11.60;;
63621;SDS011;49770;47.544;19.074;2022-12-16T16:39:38;21.35;;;11.82;;
63621;SDS011;49770;47.544;19.074;2022-12-16T16:42:59;18.85;;;11.07;;
63621;SDS011;49770;47.544;19.074;2022-12-16T16:46:28;20.05;;;11.45;;
63621;SDS011;49770;47.544;19.074;2022-12-16T16:49:54;20.12;;;11.68;;
63621;SDS011;49770;47.544;19.074;2022-12-16T16:53:20;20.67;;;11.57;;
63621;SDS011;49770;47.544;19.074;2022-12-16T16:56:41;17.85;;;11.12;;
63621;SDS011;49770;47.544;19.074;2022-12-16T17:00:02;19.98;;;11.82;;
63621;SDS011;49770;47.544;19.074;2022-12-16T17:03:24;20.60;;;12.13;;
63621;SDS011;49770;47.544;19.074;2022-12-16T17:13:28;20.50;;;11.60;;
63621;SDS011;49770;47.544;19.074;2022-12-16T17:20:14;23.02;;;12.18;;
63621;SDS011;49770;47.544;19.074;2022-12-16T17:23:37;22.98;;;12.80;;
63621;SDS011;49770;47.544;19.074;2022-12-16T17:27:05;24.12;;;12.48;;
63621;SDS011;49770;47.544;19.074;2022-12-16T17:30:44;24.50;;;13.68;;
63621;SDS011;49770;47.544;19.074;2022-12-16T17:34:05;27.40;;;13.68;;
63621;SDS011;49770;47.544;19.074;2022-12-16T17:40:51;29.65;;;14.35;;
63621;SDS011;49770;47.544;19.074;2022-12-16T17:44:12;31.95;;;15.15;;
63621;SDS011;49770;47.544;19.074;2022-12-16T17:47:34;31.77;;;15.43;;
63621;SDS011;49770;47.544;19.074;2022-12-16T17:50:55;33.40;;;15.50;;
63621;SDS011;49770;47.544;19.074;2022-12-16T17:54:16;34.10;;;16.25;;
63621;SDS011;49770;47.544;19.074;2022-12-16T18:01:00;34.97;;;16.30;;
63621;SDS011;49770;47.544;19.074;2022-12-16T18:04:22;33.72;;;15.88;;
63621;SDS011;49770;47.544;19.074;2022-12-16T18:07:43;39.47;;;18.33;;
63621;SDS011;49770;47.544;19.074;2022-12-16T18:11:04;37.90;;;17.80;;
63621;SDS011;49770;47.544;19.074;2022-12-16T18:14:25;40.20;;;19.15;;
63621;SDS011;49770;47.544;19.074;2022-12-16T18:17:47;39.00;;;18.60;;
63621;SDS011;49770;47.544;19.074;2022-12-16T18:21:09;34.80;;;17.85;;
63621;SDS011;49770;47.544;19.074;2022-12-16T18:24:31;45.17;;;20.60;;
63621;SDS011;49770;47.544;19.074;2022-12-16T18:27:52;37.33;;;19.60;;
63621;SDS011;49770;47.544;19.074;2022-12-16T18:31:14;39.08;;;20.27;;
63621;SDS011;49770;47.544;19.074;2022-12-16T18:34:35;42.35;;;20.83;;
63621;SDS011;49770;47.544;19.074;2022-12-16T18:37:56;44.15;;;21.90;;
63621;SDS011;49770;47.544;19.074;2022-12-16T18:41:19;42.92;;;21.33;;
63621;SDS011;49770;47.544;19.074;2022-12-16T18:44:41;40.90;;;20.90;;
63621;SDS011;49770;47.544;19.074;2022-12-16T18:48:03;40.60;;;20.37;;
63621;SDS011;49770;47.544;19.074;2022-12-16T18:51:25;44.85;;;21.45;;
63621;SDS011;49770;47.544;19.074;2022-12-16T18:54:45;44.28;;;21.17;;
63621;SDS011;49770;47.544;19.074;2022-12-16T18:58:07;47.25;;;21.08;;
63621;SDS011;49770;47.544;19.074;2022-12-16T19:01:48;45.90;;;21.23;;
63621;SDS011;49770;47.544;19.074;2022-12-16T19:05:17;42.25;;;20.85;;
63621;SDS011;49770;47.544;19.074;2022-12-16T19:08:39;44.10;;;20.92;;
63621;SDS011;49770;47.544;19.074;2022-12-16T19:12:01;42.30;;;20.58;;
63621;SDS011;49770;47.544;19.074;2022-12-16T19:15:22;44.42;;;20.62;;
63621;SDS011;49770;47.544;19.074;2022-12-16T19:18:44;41.20;;;20.10;;
63621;SDS011;49770;47.544;19.074;2022-12-16T19:22:05;46.28;;;21.42;;
63621;SDS011;49770;47.544;19.074;2022-12-16T19:28:47;44.90;;;20.77;;
63621;SDS011;49770;47.544;19.074;2022-12-16T19:32:09;45.47;;;21.25;;
63621;SDS011;49770;47.544;19.074;2022-12-16T19:35:30;43.08;;;20.75;;
63621;SDS011;49770;47.544;19.074;2022-12-16T19:42:13;41.75;;;20.52;;
63621;SDS011;49770;47.544;19.074;2022-12-16T19:48:57;48.03;;;20.58;;
63621;SDS011;49770;47.544;19.074;2022-12-16T19:52:18;50.15;;;21.77;;
63621;SDS011;49770;47.544;19.074;2022-12-16T19:55:39;52.00;;;23.10;;
63621;SDS011;49770;47.544;19.074;2022-12-16T19:59:01;54.22;;;24.27;;
63621;SDS011;49770;47.544;19.074;2022-12-16T20:02:23;54.13;;;24.80;;
63621;SDS011;49770;47.544;19.074;2022-12-16T20:09:13;60.78;;;26.55;;
63621;SDS011;49770;47.544;19.074;2022-12-16T20:12:34;61.67;;;28.17;;
63621;SDS011;49770;47.544;19.074;2022-12-16T20:16:01;64.07;;;28.33;;
63621;SDS011;49770;47.544;19.074;2022-12-16T20:19:23;63.58;;;28.12;;
63621;SDS011;49770;47.544;19.074;2022-12-16T20:22:44;62.92;;;29.10;;
63621;SDS011;49770;47.544;19.074;2022-12-16T20:26:05;74.10;;;31.05;;
63621;SDS011;49770;47.544;19.074;2022-12-16T20:32:48;73.55;;;28.65;;
63621;SDS011;49770;47.544;19.074;2022-12-16T20:36:10;63.87;;;28.23;;
63621;SDS011;49770;47.544;19.074;2022-12-16T20:42:58;71.15;;;30.42;;
63621;SDS011;49770;47.544;19.074;2022-12-16T20:46:27;72.07;;;29.30;;
63621;SDS011;49770;47.544;19.074;2022-12-16T20:49:49;71.32;;;30.33;;
63621;SDS011;49770;47.544;19.074;2022-12-16T20:53:10;78.95;;;32.03;;
63621;SDS011;49770;47.544;19.074;2022-12-16T20:56:31;82.80;;;33.47;;
63621;SDS011;49770;47.544;19.074;2022-12-16T20:59:54;77.72;;;32.95;;
63621;SDS011;49770;47.544;19.074;2022-12-16T21:03:17;83.32;;;34.10;;
63621;SDS011;49770;47.544;19.074;2022-12-16T21:06:38;80.72;;;33.17;;
63621;SDS011;49770;47.544;19.074;2022-12-16T21:10:00;81.32;;;33.95;;
63621;SDS011;49770;47.544;19.074;2022-12-16T21:13:21;89.25;;;34.55;;
63621;SDS011;49770;47.544;19.074;2022-12-16T21:16:43;82.03;;;35.05;;
63621;SDS011;49770;47.544;19.074;2022-12-16T21:20:04;90.22;;;37.00;;
63621;SDS011;49770;47.544;19.074;2022-12-16T21:23:25;90.32;;;37.63;;
63621;SDS011;49770;47.544;19.074;2022-12-16T21:26:46;100.95;;;39.45;;
63621;SDS011;49770;47.544;19.074;2022-12-16T21:30:08;99.37;;;38.83;;
